Aviation Digital Data Service (ADDS)

Output produced by METARs form (0755 UTC 10 December 2022)
found at http://www.aviationweather.gov/metar/data/
 
KDRO 100753Z AUTO 00000KT 10SM CLR M06/M09 A3019 RMK AO2 SLP249 T10611089
KDRO 100520Z 1006/1106 04005KT P6SM SKC
       
KFMN 100653Z AUTO 08007KT 10SM CLR M06/M11 A3019 RMK AO2 SLP243 T10611106 401001067
KFMN 100526Z 1006/1106 08007KT P6SM SKC 
     FM101800 15006KT P6SM SCT250 
     FM110200 08006KT P6SM BKN200